createdAt,value
2022-08-02T00:01:49.361Z,14.68
2022-08-02T00:04:17.572Z,15.00
2022-08-02T00:06:47.471Z,16.42
2022-08-02T00:09:16.306Z,15.68
2022-08-02T00:11:44.534Z,12.27
2022-08-02T00:14:12.760Z,12.63
2022-08-02T00:16:41.059Z,14.85
2022-08-02T00:19:09.258Z,12.75
2022-08-02T00:21:37.470Z,14.20
2022-08-02T00:24:29.222Z,16.85
2022-08-02T00:26:55.748Z,17.08
2022-08-02T00:29:23.934Z,18.95
2022-08-02T00:31:52.211Z,17.88
2022-08-02T00:34:28.640Z,17.30
2022-08-02T00:36:59.365Z,16.25
2022-08-02T00:39:35.222Z,16.42
2022-08-02T00:42:04.154Z,15.02
2022-08-02T00:44:32.454Z,15.57
2022-08-02T00:47:00.955Z,15.38
2022-08-02T00:49:29.742Z,14.10
2022-08-02T00:51:58.019Z,15.85
2022-08-02T00:54:26.749Z,18.85
2022-08-02T00:56:56.281Z,17.15
2022-08-02T00:59:24.473Z,18.77
2022-08-02T01:01:55.722Z,18.38
2022-08-02T01:04:30.547Z,15.25
2022-08-02T01:07:01.276Z,16.10
2022-08-02T01:09:29.455Z,17.33
2022-08-02T01:12:07.228Z,15.65
2022-08-02T01:14:35.743Z,17.85
2022-08-02T01:17:12.304Z,20.13
2022-08-02T01:19:50.628Z,22.65
2022-08-02T01:23:01.057Z,25.35
2022-08-02T01:25:53.334Z,25.13
2022-08-02T01:28:44.645Z,31.00
2022-08-02T01:31:17.853Z,26.70
2022-08-02T01:33:49.803Z,24.88
2022-08-02T01:36:20.502Z,24.42
2022-08-02T01:38:52.136Z,25.90
2022-08-02T01:41:22.786Z,28.05
2022-08-02T01:43:57.891Z,31.35
2022-08-02T01:46:27.898Z,29.60
2022-08-02T01:48:57.823Z,33.95
2022-08-02T01:51:42.139Z,32.42
2022-08-02T01:54:13.439Z,34.45
2022-08-02T01:56:43.077Z,33.63
2022-08-02T01:59:18.041Z,29.60
2022-08-02T02:01:49.139Z,29.55
2022-08-02T02:04:18.390Z,27.08
2022-08-02T02:06:47.717Z,35.33
2022-08-02T02:09:17.317Z,31.02
2022-08-02T02:12:05.810Z,31.58
2022-08-02T02:14:37.447Z,30.30
2022-08-02T02:17:06.763Z,32.17
2022-08-02T02:19:37.017Z,29.30
2022-08-02T02:22:05.409Z,25.15
2022-08-02T02:24:36.296Z,22.92
2022-08-02T02:27:08.169Z,22.08
2022-08-02T02:29:44.983Z,25.35
2022-08-02T02:32:15.767Z,22.50
2022-08-02T02:34:47.368Z,26.38
2022-08-02T02:37:23.301Z,29.48
2022-08-02T02:39:53.065Z,25.23
2022-08-02T02:42:24.865Z,25.75
2022-08-02T02:44:55.835Z,31.27
2022-08-02T02:47:41.382Z,33.35
2022-08-02T02:50:11.046Z,31.17
2022-08-02T02:52:40.936Z,37.38
2022-08-02T02:55:10.952Z,36.58
2022-08-02T02:57:39.823Z,33.00
2022-08-02T03:00:12.146Z,31.27
2022-08-02T03:02:42.438Z,31.77
2022-08-02T03:05:12.975Z,35.92
2022-08-02T03:07:41.345Z,35.35
2022-08-02T03:10:10.968Z,31.90
2022-08-02T03:12:39.566Z,35.25
2022-08-02T03:15:13.566Z,35.53
2022-08-02T03:17:43.518Z,35.40
2022-08-02T03:20:14.222Z,35.75
2022-08-02T03:22:43.012Z,35.15
2022-08-02T03:25:12.199Z,36.15
2022-08-02T03:27:40.452Z,29.05
2022-08-02T03:30:12.694Z,32.35
2022-08-02T03:32:43.977Z,37.80
2022-08-02T03:35:18.563Z,34.72
2022-08-02T03:37:51.897Z,34.63
2022-08-02T03:40:20.534Z,31.23
2022-08-02T03:42:50.242Z,33.58
2022-08-02T03:45:21.009Z,35.35
2022-08-02T03:47:49.505Z,38.75
2022-08-02T03:50:18.387Z,37.90
2022-08-02T03:52:47.686Z,38.88
2022-08-02T03:55:16.285Z,34.63
2022-08-02T03:57:44.996Z,34.70
2022-08-02T04:00:19.123Z,36.00
2022-08-02T04:02:49.291Z,38.95
2022-08-02T04:05:17.821Z,32.47
2022-08-02T04:08:35.310Z,35.50
2022-08-02T04:10:54.971Z,37.58
2022-08-02T04:13:31.504Z,36.88
2022-08-02T04:16:07.908Z,31.05
2022-08-02T04:18:42.157Z,32.60
2022-08-02T04:21:15.961Z,24.67
2022-08-02T04:23:47.002Z,28.98
2022-08-02T04:26:15.538Z,27.77
2022-08-02T04:28:44.540Z,28.15
2022-08-02T04:31:13.072Z,25.48
2022-08-02T04:33:43.680Z,25.40
2022-08-02T04:36:14.274Z,30.90
2022-08-02T04:38:43.309Z,21.95
2022-08-02T04:41:11.579Z,26.60
2022-08-02T04:43:39.700Z,23.85
2022-08-02T04:46:07.920Z,24.10
2022-08-02T04:48:36.112Z,25.92
2022-08-02T04:51:05.809Z,23.23
2022-08-02T04:53:34.630Z,24.33
2022-08-02T04:56:02.801Z,22.13
2022-08-02T04:58:40.561Z,21.98
2022-08-02T05:01:09.199Z,23.25
2022-08-02T05:03:37.396Z,25.85
2022-08-02T05:06:13.275Z,21.98
2022-08-02T05:08:52.733Z,22.10
2022-08-02T05:11:22.070Z,25.42
2022-08-02T05:13:57.446Z,26.55
2022-08-02T05:16:30.773Z,27.20
2022-08-02T05:19:00.214Z,25.90
2022-08-02T05:21:29.828Z,23.15
2022-08-02T05:23:57.981Z,26.40
2022-08-02T05:26:26.204Z,26.35
2022-08-02T05:28:54.343Z,27.10
2022-08-02T05:31:22.544Z,31.60
2022-08-02T05:33:50.988Z,30.15
2022-08-02T05:36:19.196Z,28.52
2022-08-02T05:38:52.942Z,28.48
2022-08-02T05:41:32.816Z,30.70
2022-08-02T05:44:01.000Z,37.42
2022-08-02T05:46:29.182Z,38.33
2022-08-02T05:48:57.387Z,37.65
2022-08-02T05:51:33.221Z,43.78
2022-08-02T05:54:12.133Z,35.00
2022-08-02T05:56:47.493Z,41.55
2022-08-02T05:59:26.477Z,45.10
2022-08-02T06:01:59.316Z,31.50
2022-08-02T06:04:32.622Z,30.88
2022-08-02T06:07:06.268Z,32.75
2022-08-02T06:09:37.121Z,30.35
2022-08-02T06:12:09.463Z,27.55
2022-08-02T06:14:38.725Z,35.78
2022-08-02T06:17:06.975Z,29.67
2022-08-02T06:19:51.708Z,30.13
2022-08-02T06:22:40.271Z,35.13
2022-08-02T06:25:48.443Z,33.75
2022-08-02T06:28:00.330Z,32.15
2022-08-02T06:30:29.400Z,29.23
2022-08-02T06:32:58.599Z,28.50
2022-08-02T06:35:33.125Z,32.70
2022-08-02T06:38:03.546Z,31.70
2022-08-02T06:40:37.218Z,46.10
2022-08-02T06:43:13.117Z,30.65
2022-08-02T06:45:42.138Z,26.10
2022-08-02T06:48:11.401Z,23.77
2022-08-02T06:50:39.869Z,31.08
2022-08-02T06:53:08.342Z,23.02
2022-08-02T06:55:44.136Z,25.83
2022-08-02T06:58:13.229Z,23.67
2022-08-02T07:00:41.860Z,25.23
2022-08-02T07:03:10.256Z,18.90
2022-08-02T07:05:38.629Z,24.65
2022-08-02T07:08:06.973Z,23.77
2022-08-02T07:10:35.301Z,20.70
2022-08-02T07:13:04.789Z,19.27
2022-08-02T07:15:33.011Z,17.88
2022-08-02T07:18:01.211Z,20.20
2022-08-02T07:20:29.542Z,19.38
2022-08-02T07:22:57.744Z,23.98
2022-08-02T07:25:25.925Z,20.63
2022-08-02T07:28:23.748Z,21.10
2022-08-02T07:30:52.763Z,22.50
2022-08-02T07:33:37.078Z,20.25
2022-08-02T07:36:09.584Z,20.92
2022-08-02T07:38:41.448Z,19.08
2022-08-02T07:41:10.157Z,20.95
2022-08-02T07:43:41.064Z,19.77
2022-08-02T07:46:09.254Z,20.30
2022-08-02T07:48:37.409Z,24.20
2022-08-02T07:51:05.594Z,20.63
2022-08-02T07:53:51.327Z,20.67
2022-08-02T07:56:22.012Z,19.85
2022-08-02T07:58:51.528Z,20.55
2022-08-02T08:01:19.750Z,21.52
2022-08-02T08:03:48.048Z,20.15
2022-08-02T08:06:16.357Z,22.73
2022-08-02T08:08:44.609Z,23.02
2022-08-02T08:11:12.809Z,14.90
2022-08-02T08:13:40.993Z,20.27
2022-08-02T08:16:10.530Z,16.90
2022-08-02T08:18:38.785Z,14.70
2022-08-02T08:21:07.332Z,17.80
2022-08-02T08:23:36.364Z,21.25
2022-08-02T08:26:04.580Z,16.42
2022-08-02T08:28:32.861Z,19.65
2022-08-02T08:31:01.225Z,12.57
2022-08-02T08:33:30.887Z,15.00
2022-08-02T08:35:59.109Z,16.38
2022-08-02T08:38:30.676Z,12.48
2022-08-02T08:40:59.226Z,16.20
2022-08-02T08:43:27.410Z,11.82
2022-08-02T08:45:56.940Z,14.25
2022-08-02T08:48:31.612Z,13.02
2022-08-02T08:51:08.582Z,13.50
2022-08-02T08:53:43.472Z,12.50
2022-08-02T08:56:16.239Z,12.60
2022-08-02T08:58:45.349Z,14.98
2022-08-02T09:01:15.179Z,12.13
2022-08-02T09:03:43.811Z,12.60
2022-08-02T09:06:13.396Z,10.30
2022-08-02T09:08:41.577Z,17.50
2022-08-02T09:11:17.463Z,12.80
2022-08-02T09:13:53.713Z,10.88
2022-08-02T09:16:33.449Z,11.45
2022-08-02T09:19:02.692Z,14.45
2022-08-02T09:21:38.972Z,8.68
2022-08-02T09:24:18.787Z,13.10
2022-08-02T09:26:47.762Z,12.18
2022-08-02T09:29:16.738Z,9.68
2022-08-02T09:31:49.906Z,14.70
2022-08-02T09:34:19.683Z,12.80
2022-08-02T09:36:54.768Z,14.07
2022-08-02T09:39:23.954Z,12.77
2022-08-02T09:41:52.209Z,10.85
2022-08-02T09:44:20.869Z,10.77
2022-08-02T09:46:49.117Z,11.48
2022-08-02T09:49:18.913Z,11.73
2022-08-02T09:51:54.380Z,10.27
2022-08-02T09:54:25.695Z,12.05
2022-08-02T09:56:55.823Z,13.25
2022-08-02T09:59:25.512Z,10.35
2022-08-02T10:02:01.509Z,10.73
2022-08-02T10:04:33.841Z,11.13
2022-08-02T10:07:04.976Z,11.80
2022-08-02T10:09:33.847Z,10.27
2022-08-02T10:12:03.540Z,8.75
2022-08-02T10:14:34.785Z,8.05
2022-08-02T10:17:05.091Z,7.20
2022-08-02T10:19:59.653Z,8.95
2022-08-02T10:22:25.471Z,9.40
2022-08-02T10:24:54.868Z,14.52
2022-08-02T10:27:25.804Z,11.88
2022-08-02T10:29:58.947Z,11.10
2022-08-02T10:32:32.460Z,13.07
2022-08-02T10:35:18.424Z,13.20
2022-08-02T10:37:52.565Z,15.52
2022-08-02T10:40:27.423Z,9.18
2022-08-02T10:43:01.030Z,8.60
2022-08-02T10:45:29.926Z,8.30
2022-08-02T10:48:04.957Z,13.85
2022-08-02T10:50:55.111Z,7.70
2022-08-02T10:53:27.200Z,10.00
2022-08-02T10:55:56.424Z,12.02
2022-08-02T10:58:29.400Z,9.07
2022-08-02T11:00:59.521Z,10.23
2022-08-02T11:03:40.919Z,12.38
2022-08-02T11:06:25.002Z,9.25
2022-08-02T11:09:36.195Z,10.98
2022-08-02T11:12:08.920Z,11.20
2022-08-02T11:14:38.861Z,11.55
2022-08-02T11:17:09.241Z,16.42
2022-08-02T11:20:17.632Z,11.27
2022-08-02T11:22:47.361Z,14.13
2022-08-02T11:26:02.287Z,13.63
2022-08-02T11:28:26.011Z,15.25
2022-08-02T11:31:02.853Z,9.15
2022-08-02T11:33:36.124Z,11.52
2022-08-02T11:36:07.362Z,12.20
2022-08-02T11:38:36.077Z,17.98
2022-08-02T11:41:09.542Z,12.32
2022-08-02T11:43:41.157Z,17.30
2022-08-02T11:46:15.231Z,11.80
2022-08-02T11:48:45.277Z,13.52
2022-08-02T11:51:15.608Z,10.50
2022-08-02T11:53:50.072Z,7.50
2022-08-02T11:56:21.842Z,13.77
2022-08-02T11:59:05.918Z,21.33
2022-08-02T12:01:42.032Z,9.95
2022-08-02T12:04:18.113Z,9.15
2022-08-02T12:06:56.218Z,10.63
2022-08-02T12:09:26.989Z,10.65
2022-08-02T12:11:55.472Z,12.45
2022-08-02T12:14:26.110Z,13.80
2022-08-02T12:17:12.332Z,12.15
2022-08-02T12:19:42.339Z,7.18
2022-08-02T12:22:17.400Z,8.95
2022-08-02T12:24:48.742Z,9.27
2022-08-02T12:27:35.212Z,10.77
2022-08-02T12:30:08.851Z,18.38
2022-08-02T12:32:37.370Z,9.52
2022-08-02T12:35:11.788Z,11.48
2022-08-02T12:37:42.713Z,8.07
2022-08-02T12:40:25.678Z,11.43
2022-08-02T12:42:57.002Z,10.77
2022-08-02T12:45:39.287Z,6.95
2022-08-02T12:48:10.416Z,19.33
2022-08-02T12:50:39.395Z,7.88
2022-08-02T12:53:10.530Z,9.85
2022-08-02T12:55:59.295Z,10.10
2022-08-02T12:58:31.700Z,10.20
2022-08-02T13:01:02.863Z,9.52
2022-08-02T13:04:11.960Z,7.60
2022-08-02T13:06:41.343Z,13.68
2022-08-02T13:09:17.330Z,10.20
2022-08-02T13:11:45.991Z,7.70
2022-08-02T13:14:15.051Z,6.25
2022-08-02T13:16:46.329Z,8.05
2022-08-02T13:19:15.603Z,8.98
2022-08-02T13:22:02.508Z,6.28
2022-08-02T13:24:39.753Z,8.40
2022-08-02T13:27:22.239Z,8.18
2022-08-02T13:29:50.465Z,7.82
2022-08-02T13:32:20.334Z,11.85
2022-08-02T13:34:48.993Z,10.00
2022-08-02T13:37:17.520Z,9.10
2022-08-02T13:40:00.452Z,11.95
2022-08-02T13:42:34.300Z,9.90
2022-08-02T13:45:13.468Z,7.50
2022-08-02T13:47:57.495Z,8.93
2022-08-02T13:50:33.970Z,5.90
2022-08-02T13:53:02.111Z,9.30
2022-08-02T13:55:30.600Z,9.13
2022-08-02T13:57:59.227Z,8.63
2022-08-02T14:00:34.989Z,10.43
2022-08-02T14:03:06.986Z,8.52
2022-08-02T14:05:47.563Z,10.35
2022-08-02T14:08:17.964Z,8.57
2022-08-02T14:10:47.210Z,10.43
2022-08-02T14:13:15.539Z,6.75
2022-08-02T14:15:44.038Z,11.90
2022-08-02T14:18:14.876Z,10.45
2022-08-02T14:20:43.404Z,9.95
2022-08-02T14:23:11.588Z,9.90
2022-08-02T14:25:39.795Z,7.15
2022-08-02T14:28:07.965Z,7.00
2022-08-02T14:30:36.371Z,7.82
2022-08-02T14:33:05.106Z,10.85
2022-08-02T14:35:35.005Z,9.05
2022-08-02T14:38:03.420Z,7.50
2022-08-02T14:40:32.114Z,8.20
2022-08-02T14:43:01.288Z,14.02
2022-08-02T14:45:39.752Z,11.00
2022-08-02T14:48:11.226Z,6.85
2022-08-02T14:50:40.856Z,13.82
2022-08-02T14:53:12.784Z,9.55
2022-08-02T14:55:42.048Z,7.45
2022-08-02T14:58:10.256Z,9.75
2022-08-02T15:00:40.809Z,8.00
2022-08-02T15:03:10.107Z,8.63
2022-08-02T15:05:38.671Z,11.25
2022-08-02T15:08:08.663Z,10.95
2022-08-02T15:10:36.981Z,11.15
2022-08-02T15:13:05.291Z,9.23
2022-08-02T15:15:43.426Z,6.35
2022-08-02T15:18:12.942Z,7.90
2022-08-02T15:20:41.408Z,6.28
2022-08-02T15:23:12.874Z,5.68
2022-08-02T15:25:42.026Z,7.55
2022-08-02T15:28:10.276Z,8.32
2022-08-02T15:30:39.361Z,7.18
2022-08-02T15:33:07.982Z,7.43
2022-08-02T15:35:36.164Z,6.50
2022-08-02T15:38:04.317Z,8.30
2022-08-02T15:40:33.837Z,6.90
2022-08-02T15:43:02.008Z,7.70
2022-08-02T15:45:30.320Z,8.48
2022-08-02T15:47:58.498Z,6.45
2022-08-02T15:50:26.668Z,8.00
2022-08-02T15:52:54.799Z,10.27
2022-08-02T15:55:23.005Z,7.88
2022-08-02T15:57:52.574Z,7.97
2022-08-02T16:00:22.376Z,6.65
2022-08-02T16:02:50.500Z,5.47
2022-08-02T16:05:20.121Z,8.55
2022-08-02T16:07:48.770Z,7.55
2022-08-02T16:10:17.513Z,6.47
2022-08-02T16:12:45.735Z,6.60
2022-08-02T16:15:15.291Z,5.38
2022-08-02T16:17:49.545Z,7.43
2022-08-02T16:20:23.317Z,5.68
2022-08-02T16:22:51.594Z,8.27
2022-08-02T16:25:19.872Z,7.05
2022-08-02T16:27:59.473Z,6.53
2022-08-02T16:30:37.490Z,6.45
2022-08-02T16:33:05.838Z,8.40
2022-08-02T16:35:34.949Z,8.50
2022-08-02T16:38:03.147Z,7.75
2022-08-02T16:40:34.271Z,7.90
2022-08-02T16:43:02.943Z,8.25
2022-08-02T16:45:38.850Z,7.00
2022-08-02T16:48:09.122Z,6.85
2022-08-02T16:50:38.254Z,6.60
2022-08-02T16:53:07.291Z,4.85
2022-08-02T16:55:36.189Z,8.40
2022-08-02T16:58:04.667Z,4.72
2022-08-02T17:00:46.571Z,6.13
2022-08-02T17:03:14.997Z,5.15
2022-08-02T17:05:56.396Z,5.82
2022-08-02T17:08:32.121Z,5.60
2022-08-02T17:11:03.772Z,7.03
2022-08-02T17:13:34.094Z,5.43
2022-08-02T17:16:20.714Z,4.97
2022-08-02T17:18:52.697Z,6.63
2022-08-02T17:21:20.970Z,8.95
2022-08-02T17:24:08.388Z,12.60
2022-08-02T17:26:38.012Z,7.90
2022-08-02T17:29:15.987Z,10.65
2022-08-02T17:32:05.035Z,7.28
2022-08-02T17:34:36.268Z,6.68
2022-08-02T17:37:05.611Z,6.22
2022-08-02T17:39:34.596Z,9.13
2022-08-02T17:42:15.367Z,7.95
2022-08-02T17:44:49.259Z,7.97
2022-08-02T17:47:18.996Z,7.60
2022-08-02T17:49:48.664Z,6.25
2022-08-02T17:52:52.225Z,7.95
2022-08-02T17:55:05.781Z,10.00
2022-08-02T17:57:57.319Z,7.93
2022-08-02T18:00:22.641Z,8.32
2022-08-02T18:02:55.173Z,8.63
2022-08-02T18:05:39.219Z,7.40
2022-08-02T18:08:10.227Z,7.18
2022-08-02T18:10:42.248Z,13.20
2022-08-02T18:13:12.313Z,7.68
2022-08-02T18:15:40.486Z,12.98
2022-08-02T18:18:10.033Z,8.68
2022-08-02T18:20:38.228Z,9.50
2022-08-02T18:23:13.391Z,7.53
2022-08-02T18:25:45.801Z,7.82
2022-08-02T18:28:16.300Z,6.57
2022-08-02T18:30:45.585Z,8.32
2022-08-02T18:33:59.632Z,9.07
2022-08-02T18:36:03.493Z,11.10
2022-08-02T18:38:31.641Z,7.38
2022-08-02T18:41:02.763Z,7.43
2022-08-02T18:43:31.711Z,8.23
2022-08-02T18:46:16.186Z,9.48
2022-08-02T18:48:48.111Z,9.93
2022-08-02T18:51:19.199Z,8.13
2022-08-02T18:53:51.386Z,10.30
2022-08-02T18:56:24.355Z,9.05
2022-08-02T18:58:55.088Z,7.10
2022-08-02T19:01:33.577Z,7.95
2022-08-02T19:04:06.082Z,11.55
2022-08-02T19:06:37.172Z,9.68
2022-08-02T19:09:13.342Z,11.90
2022-08-02T19:11:48.293Z,8.50
2022-08-02T19:14:27.905Z,9.60
2022-08-02T19:16:58.116Z,7.10
2022-08-02T19:19:28.635Z,13.48
2022-08-02T19:22:18.453Z,9.10
2022-08-02T19:24:47.192Z,11.23
2022-08-02T19:27:20.660Z,11.13
2022-08-02T19:29:54.177Z,10.13
2022-08-02T19:32:39.606Z,10.43
2022-08-02T19:35:19.712Z,14.65
2022-08-02T19:38:06.319Z,11.32
2022-08-02T19:40:34.639Z,10.85
2022-08-02T19:44:20.832Z,14.82
2022-08-02T19:45:51.702Z,13.43
2022-08-02T19:48:24.581Z,12.77
2022-08-02T19:51:00.924Z,14.45
2022-08-02T19:53:47.230Z,13.07
2022-08-02T19:56:21.145Z,14.77
2022-08-02T19:58:51.228Z,12.82
2022-08-02T20:01:25.266Z,11.57
2022-08-02T20:03:56.544Z,13.68
2022-08-02T20:06:29.906Z,12.35
2022-08-02T20:09:01.365Z,12.45
2022-08-02T20:11:34.632Z,13.43
2022-08-02T20:14:04.065Z,11.02
2022-08-02T20:16:32.807Z,12.38
2022-08-02T20:19:01.575Z,14.15
2022-08-02T20:21:35.666Z,13.38
2022-08-02T20:24:06.746Z,16.73
2022-08-02T20:26:35.587Z,12.95
2022-08-02T20:29:04.612Z,15.77
2022-08-02T20:31:32.962Z,15.02
2022-08-02T20:34:01.244Z,14.13
2022-08-02T20:36:31.318Z,14.85
2022-08-02T20:38:59.462Z,13.88
2022-08-02T20:41:37.298Z,15.90
2022-08-02T20:47:03.021Z,14.75
2022-08-02T20:49:41.139Z,15.93
2022-08-02T20:52:24.015Z,18.27
2022-08-02T20:54:53.788Z,15.60
2022-08-02T20:57:48.822Z,16.85
2022-08-02T21:00:11.692Z,20.20
2022-08-02T21:02:40.159Z,20.88
2022-08-02T21:05:17.228Z,17.33
2022-08-02T21:07:53.453Z,18.90
2022-08-02T21:10:24.014Z,19.70
2022-08-02T21:12:52.517Z,18.75
2022-08-02T21:15:20.788Z,18.02
2022-08-02T21:17:52.498Z,16.77
2022-08-02T21:20:27.559Z,18.98
2022-08-02T21:22:58.928Z,21.63
2022-08-02T21:25:50.657Z,22.65
2022-08-02T21:28:17.608Z,19.92
2022-08-02T21:30:46.555Z,17.92
2022-08-02T21:33:18.143Z,18.08
2022-08-02T21:35:52.323Z,20.48
2022-08-02T21:38:35.490Z,19.23
2022-08-02T21:41:06.917Z,17.17
2022-08-02T21:43:40.446Z,16.30
2022-08-02T21:46:14.708Z,19.80
2022-08-02T21:48:43.296Z,16.75
2022-08-02T21:51:15.743Z,20.63
2022-08-02T21:54:18.147Z,18.30
2022-08-02T21:56:33.777Z,17.00
2022-08-02T21:59:15.828Z,17.08
2022-08-02T22:01:52.694Z,17.15
2022-08-02T22:04:22.349Z,18.02
2022-08-02T22:06:50.715Z,18.92
2022-08-02T22:09:44.521Z,22.00
2022-08-02T22:12:10.097Z,23.13
2022-08-02T22:14:41.233Z,23.90
2022-08-02T22:17:13.481Z,26.55
2022-08-02T22:19:53.832Z,28.05
2022-08-02T22:22:28.504Z,31.63
2022-08-02T22:24:58.527Z,39.47
2022-08-02T22:28:15.815Z,31.33
2022-08-02T22:30:16.915Z,47.75
2022-08-02T22:33:11.824Z,39.25
2022-08-02T22:35:43.647Z,49.67
2022-08-02T22:38:16.932Z,51.05
2022-08-02T22:40:48.765Z,48.60
2022-08-02T22:43:22.625Z,57.58
2022-08-02T22:45:51.642Z,45.35
2022-08-02T22:48:20.481Z,44.92
2022-08-02T22:50:48.862Z,59.03
2022-08-02T22:53:18.314Z,47.42
2022-08-02T22:55:54.371Z,48.90
2022-08-02T22:58:23.192Z,47.17
2022-08-02T22:59:05.213Z,13.90
2022-08-02T23:00:51.353Z,52.83
2022-08-02T23:03:19.498Z,52.80
2022-08-02T23:05:48.300Z,44.53
2022-08-02T23:08:16.481Z,58.83
2022-08-02T23:10:44.743Z,41.40
2022-08-02T23:13:14.310Z,37.25
2022-08-02T23:16:00.047Z,35.03
2022-08-02T23:18:46.239Z,34.00
2022-08-02T23:21:45.584Z,33.47
2022-08-02T23:24:03.215Z,33.42
2022-08-02T23:26:31.409Z,30.98
2022-08-02T23:29:02.935Z,34.35
2022-08-02T23:31:32.867Z,36.97
2022-08-02T23:34:06.461Z,47.55
2022-08-02T23:36:35.081Z,52.90
2022-08-02T23:39:03.267Z,47.28
2022-08-02T23:41:31.411Z,43.92
2022-08-02T23:44:12.996Z,41.10
2022-08-02T23:46:44.599Z,41.70
2022-08-02T23:49:13.238Z,36.00
2022-08-02T23:51:41.426Z,34.08
2022-08-02T23:54:09.733Z,38.20
2022-08-02T23:56:38.304Z,31.90
2022-08-02T23:59:07.698Z,34.88
